sensor_id;sensor_type;location;lat;lon;timestamp;temperature;humidity
60033;DHT22;45905;50.570;10.428;2022-12-10T00:01:50;0.70;99.90
60033;DHT22;45905;50.570;10.428;2022-12-10T00:04:19;0.70;99.90
60033;DHT22;45905;50.570;10.428;2022-12-10T00:06:47;0.70;99.90
60033;DHT22;45905;50.570;10.428;2022-12-10T00:09:16;0.70;99.90
60033;DHT22;45905;50.570;10.428;2022-12-10T00:11:45;0.70;99.90
60033;DHT22;45905;50.570;10.428;2022-12-10T00:14:13;0.70;99.90
60033;DHT22;45905;50.570;10.428;2022-12-10T00:16:41;0.70;99.90
60033;DHT22;45905;50.570;10.428;2022-12-10T00:19:08;0.70;99.90
60033;DHT22;45905;50.570;10.428;2022-12-10T00:21:36;0.80;99.90
60033;DHT22;45905;50.570;10.428;2022-12-10T00:24:05;0.70;99.90
60033;DHT22;45905;50.570;10.428;2022-12-10T00:26:36;0.70;99.90
60033;DHT22;45905;50.570;10.428;2022-12-10T00:29:06;0.70;99.90
60033;DHT22;45905;50.570;10.428;2022-12-10T00:31:37;0.80;99.90
60033;DHT22;45905;50.570;10.428;2022-12-10T00:34:07;0.70;99.90
60033;DHT22;45905;50.570;10.428;2022-12-10T00:36:45;0.80;99.90
60033;DHT22;45905;50.570;10.428;2022-12-10T00:39:19;0.80;99.90
60033;DHT22;45905;50.570;10.428;2022-12-10T00:41:47;0.70;99.90
60033;DHT22;45905;50.570;10.428;2022-12-10T00:44:15;0.70;99.90
60033;DHT22;45905;50.570;10.428;2022-12-10T00:46:43;0.70;99.90
60033;DHT22;45905;50.570;10.428;2022-12-10T00:49:10;0.80;99.90
60033;DHT22;45905;50.570;10.428;2022-12-10T00:51:38;0.80;99.90
60033;DHT22;45905;50.570;10.428;2022-12-10T00:54:05;0.80;99.90
60033;DHT22;45905;50.570;10.428;2022-12-10T00:56:33;0.80;99.90
60033;DHT22;45905;50.570;10.428;2022-12-10T00:59:01;0.70;99.90
60033;DHT22;45905;50.570;10.428;2022-12-10T01:01:34;0.80;99.90
60033;DHT22;45905;50.570;10.428;2022-12-10T01:04:10;0.70;99.90
60033;DHT22;45905;50.570;10.428;2022-12-10T01:06:58;0.80;99.90
60033;DHT22;45905;50.570;10.428;2022-12-10T01:09:29;0.70;99.90
60033;DHT22;45905;50.570;10.428;2022-12-10T01:12:00;0.70;99.90
60033;DHT22;45905;50.570;10.428;2022-12-10T01:14:30;0.80;99.90
60033;DHT22;45905;50.570;10.428;2022-12-10T01:17:00;0.70;99.90
60033;DHT22;45905;50.570;10.428;2022-12-10T01:19:30;0.70;99.90
60033;DHT22;45905;50.570;10.428;2022-12-10T01:22:01;0.60;99.90
60033;DHT22;45905;50.570;10.428;2022-12-10T01:24:29;0.70;99.90
60033;DHT22;45905;50.570;10.428;2022-12-10T01:26:56;0.60;99.90
60033;DHT22;45905;50.570;10.428;2022-12-10T01:29:24;0.70;99.90
60033;DHT22;45905;50.570;10.428;2022-12-10T01:31:52;0.60;99.90
60033;DHT22;45905;50.570;10.428;2022-12-10T01:34:21;0.60;99.90
60033;DHT22;45905;50.570;10.428;2022-12-10T01:36:51;0.80;99.90
60033;DHT22;45905;50.570;10.428;2022-12-10T01:39:21;0.70;99.90
60033;DHT22;45905;50.570;10.428;2022-12-10T01:41:53;0.70;99.90
60033;DHT22;45905;50.570;10.428;2022-12-10T01:46:54;0.70;99.90
60033;DHT22;45905;50.570;10.428;2022-12-10T01:49:27;0.70;99.90
60033;DHT22;45905;50.570;10.428;2022-12-10T01:51:59;0.70;99.90
60033;DHT22;45905;50.570;10.428;2022-12-10T01:54:30;0.70;99.90
60033;DHT22;45905;50.570;10.428;2022-12-10T01:57:27;0.90;99.90
60033;DHT22;45905;50.570;10.428;2022-12-10T01:59:57;0.70;99.90
60033;DHT22;45905;50.570;10.428;2022-12-10T02:02:51;0.70;99.90
60033;DHT22;45905;50.570;10.428;2022-12-10T02:05:51;0.70;99.90
60033;DHT22;45905;50.570;10.428;2022-12-10T02:08:36;0.70;99.90
60033;DHT22;45905;50.570;10.428;2022-12-10T02:11:23;0.70;99.90
60033;DHT22;45905;50.570;10.428;2022-12-10T02:14:03;0.80;99.90
60033;DHT22;45905;50.570;10.428;2022-12-10T02:17:01;0.70;99.90
60033;DHT22;45905;50.570;10.428;2022-12-10T02:20:54;0.80;99.90
60033;DHT22;45905;50.570;10.428;2022-12-10T02:23:02;0.60;99.90
60033;DHT22;45905;50.570;10.428;2022-12-10T02:31:35;0.60;99.90
60033;DHT22;45905;50.570;10.428;2022-12-10T02:34:07;0.60;99.90
60033;DHT22;45905;50.570;10.428;2022-12-10T02:36:38;0.60;99.90
60033;DHT22;45905;50.570;10.428;2022-12-10T02:39:12;0.60;99.90
60033;DHT22;45905;50.570;10.428;2022-12-10T02:41:52;0.60;99.90
60033;DHT22;45905;50.570;10.428;2022-12-10T02:44:23;0.60;99.90
60033;DHT22;45905;50.570;10.428;2022-12-10T02:46:55;0.60;99.90
60033;DHT22;45905;50.570;10.428;2022-12-10T02:49:30;0.60;99.90
60033;DHT22;45905;50.570;10.428;2022-12-10T02:52:06;0.60;99.90
60033;DHT22;45905;50.570;10.428;2022-12-10T02:54:43;0.60;99.90
60033;DHT22;45905;50.570;10.428;2022-12-10T03:00:23;0.60;99.90
60033;DHT22;45905;50.570;10.428;2022-12-10T03:06:07;0.60;99.90
60033;DHT22;45905;50.570;10.428;2022-12-10T03:11:23;0.50;99.90
60033;DHT22;45905;50.570;10.428;2022-12-10T03:16:58;0.50;99.90
60033;DHT22;45905;50.570;10.428;2022-12-10T03:19:38;0.50;99.90
60033;DHT22;45905;50.570;10.428;2022-12-10T03:22:12;0.50;99.90
60033;DHT22;45905;50.570;10.428;2022-12-10T03:24:42;0.50;99.90
60033;DHT22;45905;50.570;10.428;2022-12-10T03:27:11;0.50;99.90
60033;DHT22;45905;50.570;10.428;2022-12-10T03:29:50;0.60;99.90
60033;DHT22;45905;50.570;10.428;2022-12-10T03:32:21;0.60;99.90
60033;DHT22;45905;50.570;10.428;2022-12-10T03:34:53;0.60;99.90
60033;DHT22;45905;50.570;10.428;2022-12-10T03:37:24;0.60;99.90
60033;DHT22;45905;50.570;10.428;2022-12-10T03:39:53;0.60;99.90
60033;DHT22;45905;50.570;10.428;2022-12-10T03:42:21;0.60;99.90
60033;DHT22;45905;50.570;10.428;2022-12-10T03:44:50;0.60;99.90
60033;DHT22;45905;50.570;10.428;2022-12-10T03:47:18;0.60;99.90
60033;DHT22;45905;50.570;10.428;2022-12-10T03:49:46;0.60;99.90
60033;DHT22;45905;50.570;10.428;2022-12-10T03:52:13;0.60;99.90
60033;DHT22;45905;50.570;10.428;2022-12-10T03:54:40;0.60;99.90
60033;DHT22;45905;50.570;10.428;2022-12-10T03:57:08;0.60;99.90
60033;DHT22;45905;50.570;10.428;2022-12-10T03:59:35;0.60;99.90
60033;DHT22;45905;50.570;10.428;2022-12-10T04:02:02;0.60;99.90
60033;DHT22;45905;50.570;10.428;2022-12-10T04:04:30;0.60;99.90
60033;DHT22;45905;50.570;10.428;2022-12-10T04:06:57;0.60;99.90
60033;DHT22;45905;50.570;10.428;2022-12-10T04:09:25;0.50;99.90
60033;DHT22;45905;50.570;10.428;2022-12-10T04:11:56;0.70;99.90
60033;DHT22;45905;50.570;10.428;2022-12-10T04:14:24;0.60;99.90
60033;DHT22;45905;50.570;10.428;2022-12-10T04:17:11;0.60;99.90
60033;DHT22;45905;50.570;10.428;2022-12-10T04:19:38;0.60;99.90
60033;DHT22;45905;50.570;10.428;2022-12-10T04:22:06;0.60;99.90
60033;DHT22;45905;50.570;10.428;2022-12-10T04:24:51;0.60;99.90
60033;DHT22;45905;50.570;10.428;2022-12-10T04:27:54;0.60;99.90
60033;DHT22;45905;50.570;10.428;2022-12-10T04:30:21;0.60;99.90
60033;DHT22;45905;50.570;10.428;2022-12-10T04:32:48;0.70;99.90
60033;DHT22;45905;50.570;10.428;2022-12-10T04:35:15;0.60;99.90
60033;DHT22;45905;50.570;10.428;2022-12-10T04:37:42;0.50;99.90
60033;DHT22;45905;50.570;10.428;2022-12-10T04:40:10;0.50;99.90
60033;DHT22;45905;50.570;10.428;2022-12-10T04:42:38;0.50;99.90
60033;DHT22;45905;50.570;10.428;2022-12-10T04:45:05;0.60;99.90
60033;DHT22;45905;50.570;10.428;2022-12-10T04:47:33;0.50;99.90
60033;DHT22;45905;50.570;10.428;2022-12-10T04:50:00;0.50;99.90
60033;DHT22;45905;50.570;10.428;2022-12-10T04:52:27;0.60;99.90
60033;DHT22;45905;50.570;10.428;2022-12-10T04:54:54;0.60;99.90
60033;DHT22;45905;50.570;10.428;2022-12-10T04:57:21;0.50;99.90
60033;DHT22;45905;50.570;10.428;2022-12-10T04:59:48;0.50;99.90
60033;DHT22;45905;50.570;10.428;2022-12-10T05:02:15;0.50;99.90
60033;DHT22;45905;50.570;10.428;2022-12-10T05:04:42;0.50;99.90
60033;DHT22;45905;50.570;10.428;2022-12-10T05:07:09;0.50;99.90
60033;DHT22;45905;50.570;10.428;2022-12-10T05:09:37;0.50;99.90
60033;DHT22;45905;50.570;10.428;2022-12-10T05:12:05;0.50;99.90
60033;DHT22;45905;50.570;10.428;2022-12-10T05:14:32;0.50;99.90
60033;DHT22;45905;50.570;10.428;2022-12-10T05:17:00;0.50;99.90
60033;DHT22;45905;50.570;10.428;2022-12-10T05:19:27;0.50;99.90
60033;DHT22;45905;50.570;10.428;2022-12-10T05:21:54;0.50;99.90
60033;DHT22;45905;50.570;10.428;2022-12-10T05:24:40;0.40;99.90
60033;DHT22;45905;50.570;10.428;2022-12-10T05:27:07;0.40;99.90
60033;DHT22;45905;50.570;10.428;2022-12-10T05:29:34;0.40;99.90
60033;DHT22;45905;50.570;10.428;2022-12-10T05:32:02;0.40;99.90
60033;DHT22;45905;50.570;10.428;2022-12-10T05:34:30;0.40;99.90
60033;DHT22;45905;50.570;10.428;2022-12-10T05:36:58;0.40;99.90
60033;DHT22;45905;50.570;10.428;2022-12-10T05:39:25;0.30;99.90
60033;DHT22;45905;50.570;10.428;2022-12-10T05:41:52;0.30;99.90
60033;DHT22;45905;50.570;10.428;2022-12-10T05:44:19;0.30;99.90
60033;DHT22;45905;50.570;10.428;2022-12-10T05:46:47;0.30;99.90
60033;DHT22;45905;50.570;10.428;2022-12-10T05:49:14;0.30;99.90
60033;DHT22;45905;50.570;10.428;2022-12-10T05:51:41;0.50;99.90
60033;DHT22;45905;50.570;10.428;2022-12-10T05:54:09;0.30;99.90
60033;DHT22;45905;50.570;10.428;2022-12-10T05:56:37;0.30;99.90
60033;DHT22;45905;50.570;10.428;2022-12-10T05:59:04;0.30;99.90
60033;DHT22;45905;50.570;10.428;2022-12-10T06:01:38;0.30;99.90
60033;DHT22;45905;50.570;10.428;2022-12-10T06:04:06;0.30;99.90
60033;DHT22;45905;50.570;10.428;2022-12-10T06:06:36;0.40;99.90
60033;DHT22;45905;50.570;10.428;2022-12-10T06:09:06;0.30;99.90
60033;DHT22;45905;50.570;10.428;2022-12-10T06:11:35;0.30;99.90
60033;DHT22;45905;50.570;10.428;2022-12-10T06:14:02;0.30;99.90
60033;DHT22;45905;50.570;10.428;2022-12-10T06:16:30;0.30;99.90
60033;DHT22;45905;50.570;10.428;2022-12-10T06:18:57;0.30;99.90
60033;DHT22;45905;50.570;10.428;2022-12-10T06:21:25;0.30;99.90
60033;DHT22;45905;50.570;10.428;2022-12-10T06:23:53;0.30;99.90
60033;DHT22;45905;50.570;10.428;2022-12-10T06:26:23;0.30;99.90
60033;DHT22;45905;50.570;10.428;2022-12-10T06:28:52;0.30;99.90
60033;DHT22;45905;50.570;10.428;2022-12-10T06:31:21;0.40;99.90
60033;DHT22;45905;50.570;10.428;2022-12-10T06:33:50;0.30;99.90
60033;DHT22;45905;50.570;10.428;2022-12-10T06:36:19;0.40;99.90
60033;DHT22;45905;50.570;10.428;2022-12-10T06:38:47;0.30;99.90
60033;DHT22;45905;50.570;10.428;2022-12-10T06:41:16;0.30;99.90
60033;DHT22;45905;50.570;10.428;2022-12-10T06:43:44;0.30;99.90
60033;DHT22;45905;50.570;10.428;2022-12-10T06:46:14;0.30;99.90
60033;DHT22;45905;50.570;10.428;2022-12-10T06:48:43;0.30;99.90
60033;DHT22;45905;50.570;10.428;2022-12-10T06:51:12;0.30;99.90
60033;DHT22;45905;50.570;10.428;2022-12-10T06:53:40;0.30;99.90
60033;DHT22;45905;50.570;10.428;2022-12-10T06:56:12;0.30;99.90
60033;DHT22;45905;50.570;10.428;2022-12-10T06:58:41;0.20;99.90
60033;DHT22;45905;50.570;10.428;2022-12-10T07:01:14;0.20;99.90
60033;DHT22;45905;50.570;10.428;2022-12-10T07:03:52;0.30;99.90
60033;DHT22;45905;50.570;10.428;2022-12-10T07:06:20;0.30;99.90
60033;DHT22;45905;50.570;10.428;2022-12-10T07:08:49;0.30;99.90
60033;DHT22;45905;50.570;10.428;2022-12-10T07:11:18;0.30;99.90
60033;DHT22;45905;50.570;10.428;2022-12-10T07:13:47;0.40;99.90
60033;DHT22;45905;50.570;10.428;2022-12-10T07:16:23;0.30;99.90
60033;DHT22;45905;50.570;10.428;2022-12-10T07:18:53;0.30;99.90
60033;DHT22;45905;50.570;10.428;2022-12-10T07:21:41;0.30;99.90
60033;DHT22;45905;50.570;10.428;2022-12-10T07:24:14;0.20;99.90
60033;DHT22;45905;50.570;10.428;2022-12-10T07:26:44;0.20;99.90
60033;DHT22;45905;50.570;10.428;2022-12-10T07:29:18;0.20;99.90
60033;DHT22;45905;50.570;10.428;2022-12-10T07:31:48;0.20;99.90
60033;DHT22;45905;50.570;10.428;2022-12-10T07:34:16;0.20;99.90
60033;DHT22;45905;50.570;10.428;2022-12-10T07:36:43;0.30;99.90
60033;DHT22;45905;50.570;10.428;2022-12-10T07:39:12;0.20;99.90
60033;DHT22;45905;50.570;10.428;2022-12-10T07:41:48;0.20;99.90
60033;DHT22;45905;50.570;10.428;2022-12-10T07:44:23;0.20;99.90
60033;DHT22;45905;50.570;10.428;2022-12-10T07:46:52;0.30;99.90
60033;DHT22;45905;50.570;10.428;2022-12-10T07:49:20;0.20;99.90
60033;DHT22;45905;50.570;10.428;2022-12-10T07:51:49;0.20;99.90
60033;DHT22;45905;50.570;10.428;2022-12-10T07:54:17;0.20;99.90
60033;DHT22;45905;50.570;10.428;2022-12-10T07:56:45;0.20;99.90
60033;DHT22;45905;50.570;10.428;2022-12-10T07:59:12;0.30;99.90
60033;DHT22;45905;50.570;10.428;2022-12-10T08:01:40;0.20;99.90
60033;DHT22;45905;50.570;10.428;2022-12-10T08:04:07;0.10;99.90
60033;DHT22;45905;50.570;10.428;2022-12-10T08:06:35;0.10;99.90
60033;DHT22;45905;50.570;10.428;2022-12-10T08:09:02;0.20;99.90
60033;DHT22;45905;50.570;10.428;2022-12-10T08:11:29;0.10;99.90
60033;DHT22;45905;50.570;10.428;2022-12-10T08:13:57;0.20;99.90
60033;DHT22;45905;50.570;10.428;2022-12-10T08:16:26;0.10;99.90
60033;DHT22;45905;50.570;10.428;2022-12-10T08:18:56;0.20;99.90
60033;DHT22;45905;50.570;10.428;2022-12-10T08:21:27;0.10;99.90
60033;DHT22;45905;50.570;10.428;2022-12-10T08:23:56;0.20;99.90
60033;DHT22;45905;50.570;10.428;2022-12-10T08:26:26;0.10;99.90
60033;DHT22;45905;50.570;10.428;2022-12-10T08:28:57;0.10;99.90
60033;DHT22;45905;50.570;10.428;2022-12-10T08:31:26;0.10;99.90
60033;DHT22;45905;50.570;10.428;2022-12-10T08:34:01;0.10;99.90
60033;DHT22;45905;50.570;10.428;2022-12-10T08:36:28;0.10;99.90
60033;DHT22;45905;50.570;10.428;2022-12-10T08:38:57;0.10;99.90
60033;DHT22;45905;50.570;10.428;2022-12-10T08:41:24;0.10;99.90
60033;DHT22;45905;50.570;10.428;2022-12-10T08:43:52;0.10;99.90
60033;DHT22;45905;50.570;10.428;2022-12-10T08:46:20;0.10;99.90
60033;DHT22;45905;50.570;10.428;2022-12-10T08:48:47;0.10;99.90
60033;DHT22;45905;50.570;10.428;2022-12-10T08:51:16;0.20;99.90
60033;DHT22;45905;50.570;10.428;2022-12-10T08:53:45;0.10;99.90
60033;DHT22;45905;50.570;10.428;2022-12-10T08:56:13;0.00;99.90
60033;DHT22;45905;50.570;10.428;2022-12-10T08:58:41;0.00;99.90
60033;DHT22;45905;50.570;10.428;2022-12-10T09:01:13;0.10;99.90
60033;DHT22;45905;50.570;10.428;2022-12-10T09:03:42;0.00;99.90
60033;DHT22;45905;50.570;10.428;2022-12-10T09:06:13;0.00;99.90
60033;DHT22;45905;50.570;10.428;2022-12-10T09:08:43;0.00;99.90
60033;DHT22;45905;50.570;10.428;2022-12-10T09:11:17;0.00;99.90
60033;DHT22;45905;50.570;10.428;2022-12-10T09:13:45;0.00;99.90
60033;DHT22;45905;50.570;10.428;2022-12-10T09:16:12;0.00;99.90
60033;DHT22;45905;50.570;10.428;2022-12-10T09:18:40;-0.10;99.90
60033;DHT22;45905;50.570;10.428;2022-12-10T09:21:14;0.00;99.90
60033;DHT22;45905;50.570;10.428;2022-12-10T09:23:43;0.10;99.90
60033;DHT22;45905;50.570;10.428;2022-12-10T09:26:14;0.00;99.90
60033;DHT22;45905;50.570;10.428;2022-12-10T09:28:43;0.10;99.90
60033;DHT22;45905;50.570;10.428;2022-12-10T09:31:12;0.00;99.90
60033;DHT22;45905;50.570;10.428;2022-12-10T09:33:47;0.00;99.90
60033;DHT22;45905;50.570;10.428;2022-12-10T09:36:16;0.00;99.90
60033;DHT22;45905;50.570;10.428;2022-12-10T09:38:46;0.10;99.90
60033;DHT22;45905;50.570;10.428;2022-12-10T09:44:41;0.10;99.90
60033;DHT22;45905;50.570;10.428;2022-12-10T09:47:17;0.10;99.90
60033;DHT22;45905;50.570;10.428;2022-12-10T09:52:31;0.20;99.90
60033;DHT22;45905;50.570;10.428;2022-12-10T09:55:16;0.20;99.90
60033;DHT22;45905;50.570;10.428;2022-12-10T09:57:50;0.20;99.90
60033;DHT22;45905;50.570;10.428;2022-12-10T10:02:57;0.50;99.90
60033;DHT22;45905;50.570;10.428;2022-12-10T10:05:31;0.50;99.90
60033;DHT22;45905;50.570;10.428;2022-12-10T10:08:03;0.50;99.90
60033;DHT22;45905;50.570;10.428;2022-12-10T10:10:38;0.50;99.90
60033;DHT22;45905;50.570;10.428;2022-12-10T10:15:37;0.40;99.90
60033;DHT22;45905;50.570;10.428;2022-12-10T10:20:56;0.40;99.90
60033;DHT22;45905;50.570;10.428;2022-12-10T10:23:24;0.50;99.90
60033;DHT22;45905;50.570;10.428;2022-12-10T10:25:51;0.40;99.90
60033;DHT22;45905;50.570;10.428;2022-12-10T10:28:21;0.40;99.90
60033;DHT22;45905;50.570;10.428;2022-12-10T10:30:52;0.40;99.90
60033;DHT22;45905;50.570;10.428;2022-12-10T10:33:21;0.40;99.90
60033;DHT22;45905;50.570;10.428;2022-12-10T10:35:54;0.40;99.90
60033;DHT22;45905;50.570;10.428;2022-12-10T10:38:27;0.30;99.90
60033;DHT22;45905;50.570;10.428;2022-12-10T10:40:57;0.30;99.90
60033;DHT22;45905;50.570;10.428;2022-12-10T10:43:32;0.40;99.90
60033;DHT22;45905;50.570;10.428;2022-12-10T10:48:41;0.30;99.90
60033;DHT22;45905;50.570;10.428;2022-12-10T10:51:20;0.30;99.90
60033;DHT22;45905;50.570;10.428;2022-12-10T10:53:53;0.30;99.90
60033;DHT22;45905;50.570;10.428;2022-12-10T10:56:41;0.30;99.90
60033;DHT22;45905;50.570;10.428;2022-12-10T11:01:49;0.30;99.90
60033;DHT22;45905;50.570;10.428;2022-12-10T11:04:37;0.50;99.90
60033;DHT22;45905;50.570;10.428;2022-12-10T11:07:43;0.30;99.90
60033;DHT22;45905;50.570;10.428;2022-12-10T11:13:03;0.30;99.90
60033;DHT22;45905;50.570;10.428;2022-12-10T11:15:38;0.30;99.90
60033;DHT22;45905;50.570;10.428;2022-12-10T11:23:41;0.30;99.90
60033;DHT22;45905;50.570;10.428;2022-12-10T11:35:20;0.20;99.90
60033;DHT22;45905;50.570;10.428;2022-12-10T11:38:23;0.20;99.90
60033;DHT22;45905;50.570;10.428;2022-12-10T11:43:47;0.30;99.90
60033;DHT22;45905;50.570;10.428;2022-12-10T11:46:45;0.30;99.90
60033;DHT22;45905;50.570;10.428;2022-12-10T11:52:40;0.30;99.90
60033;DHT22;45905;50.570;10.428;2022-12-10T12:04:10;0.40;99.90
60033;DHT22;45905;50.570;10.428;2022-12-10T12:12:50;0.40;99.90
60033;DHT22;45905;50.570;10.428;2022-12-10T12:15:28;0.50;99.90
60033;DHT22;45905;50.570;10.428;2022-12-10T12:20:58;0.40;99.90
60033;DHT22;45905;50.570;10.428;2022-12-10T12:26:36;0.50;99.90
60033;DHT22;45905;50.570;10.428;2022-12-10T12:29:21;0.40;99.90
60033;DHT22;45905;50.570;10.428;2022-12-10T12:32:17;0.50;99.90
60033;DHT22;45905;50.570;10.428;2022-12-10T12:34:57;0.50;99.90
60033;DHT22;45905;50.570;10.428;2022-12-10T12:37:34;0.50;99.90
60033;DHT22;45905;50.570;10.428;2022-12-10T12:40:16;0.50;99.90
60033;DHT22;45905;50.570;10.428;2022-12-10T12:42:56;0.50;99.90
60033;DHT22;45905;50.570;10.428;2022-12-10T12:46:02;0.50;99.90
60033;DHT22;45905;50.570;10.428;2022-12-10T12:48:48;0.50;99.90
60033;DHT22;45905;50.570;10.428;2022-12-10T12:51:33;0.50;99.90
60033;DHT22;45905;50.570;10.428;2022-12-10T12:54:10;0.50;99.90
60033;DHT22;45905;50.570;10.428;2022-12-10T13:05:36;0.60;99.90
60033;DHT22;45905;50.570;10.428;2022-12-10T13:14:28;0.50;99.90
60033;DHT22;45905;50.570;10.428;2022-12-10T13:22:10;0.60;99.90
60033;DHT22;45905;50.570;10.428;2022-12-10T13:37:54;0.40;99.90
60033;DHT22;45905;50.570;10.428;2022-12-10T13:40:36;0.40;99.90
60033;DHT22;45905;50.570;10.428;2022-12-10T13:46:31;0.40;99.90
60033;DHT22;45905;50.570;10.428;2022-12-10T13:49:04;0.40;99.90
60033;DHT22;45905;50.570;10.428;2022-12-10T14:00:20;0.40;99.90
60033;DHT22;45905;50.570;10.428;2022-12-10T14:03:04;0.30;99.90
60033;DHT22;45905;50.570;10.428;2022-12-10T14:08:27;0.30;99.90
60033;DHT22;45905;50.570;10.428;2022-12-10T14:10:59;0.30;99.90
60033;DHT22;45905;50.570;10.428;2022-12-10T14:13:39;0.40;99.90
60033;DHT22;45905;50.570;10.428;2022-12-10T14:16:14;0.40;99.90
60033;DHT22;45905;50.570;10.428;2022-12-10T14:18:44;0.30;99.90
60033;DHT22;45905;50.570;10.428;2022-12-10T14:21:18;0.40;99.90
60033;DHT22;45905;50.570;10.428;2022-12-10T14:23:47;0.30;99.90
60033;DHT22;45905;50.570;10.428;2022-12-10T14:26:28;0.30;99.90
60033;DHT22;45905;50.570;10.428;2022-12-10T14:29:17;0.30;99.90
60033;DHT22;45905;50.570;10.428;2022-12-10T14:31:53;0.30;99.90
60033;DHT22;45905;50.570;10.428;2022-12-10T14:34:25;0.20;99.90
60033;DHT22;45905;50.570;10.428;2022-12-10T14:36:57;0.10;99.90
60033;DHT22;45905;50.570;10.428;2022-12-10T14:39:31;0.20;99.90
60033;DHT22;45905;50.570;10.428;2022-12-10T14:42:03;0.20;99.90
60033;DHT22;45905;50.570;10.428;2022-12-10T14:44:33;0.20;99.90
60033;DHT22;45905;50.570;10.428;2022-12-10T14:47:13;0.20;99.90
60033;DHT22;45905;50.570;10.428;2022-12-10T14:49:50;0.10;99.90
60033;DHT22;45905;50.570;10.428;2022-12-10T14:52:25;0.10;99.90
60033;DHT22;45905;50.570;10.428;2022-12-10T14:55:06;0.20;99.90
60033;DHT22;45905;50.570;10.428;2022-12-10T14:57:41;0.10;99.90
60033;DHT22;45905;50.570;10.428;2022-12-10T15:00:13;0.10;99.90
60033;DHT22;45905;50.570;10.428;2022-12-10T15:02:48;0.10;99.90
60033;DHT22;45905;50.570;10.428;2022-12-10T15:05:22;0.10;99.90
60033;DHT22;45905;50.570;10.428;2022-12-10T15:08:18;0.10;99.90
60033;DHT22;45905;50.570;10.428;2022-12-10T15:10:54;0.10;99.90
60033;DHT22;45905;50.570;10.428;2022-12-10T15:15:58;0.10;99.90
60033;DHT22;45905;50.570;10.428;2022-12-10T15:23:48;0.00;99.90
60033;DHT22;45905;50.570;10.428;2022-12-10T15:28:52;-0.10;99.90
60033;DHT22;45905;50.570;10.428;2022-12-10T15:39:29;-0.10;99.90
60033;DHT22;45905;50.570;10.428;2022-12-10T15:42:08;-0.10;99.90
60033;DHT22;45905;50.570;10.428;2022-12-10T15:44:40;-0.10;99.90
60033;DHT22;45905;50.570;10.428;2022-12-10T15:49:51;-0.20;99.90
60033;DHT22;45905;50.570;10.428;2022-12-10T15:52:20;-0.30;99.90
60033;DHT22;45905;50.570;10.428;2022-12-10T15:54:51;-0.20;99.90
60033;DHT22;45905;50.570;10.428;2022-12-10T15:57:34;-0.20;99.90
60033;DHT22;45905;50.570;10.428;2022-12-10T16:00:10;-0.20;99.90
60033;DHT22;45905;50.570;10.428;2022-12-10T16:03:02;-0.20;99.90
60033;DHT22;45905;50.570;10.428;2022-12-10T16:05:37;-0.20;99.90
60033;DHT22;45905;50.570;10.428;2022-12-10T16:08:26;-0.20;99.90
60033;DHT22;45905;50.570;10.428;2022-12-10T16:10:59;-0.20;99.90
60033;DHT22;45905;50.570;10.428;2022-12-10T16:13:31;-0.30;99.90
60033;DHT22;45905;50.570;10.428;2022-12-10T16:16:05;-0.30;99.90
60033;DHT22;45905;50.570;10.428;2022-12-10T16:18:36;-0.20;99.90
60033;DHT22;45905;50.570;10.428;2022-12-10T16:21:05;-0.30;99.90
60033;DHT22;45905;50.570;10.428;2022-12-10T16:23:35;-0.30;99.90
60033;DHT22;45905;50.570;10.428;2022-12-10T16:26:14;-0.30;99.90
60033;DHT22;45905;50.570;10.428;2022-12-10T16:28:43;-0.30;99.90
60033;DHT22;45905;50.570;10.428;2022-12-10T16:31:12;-0.30;99.90
60033;DHT22;45905;50.570;10.428;2022-12-10T16:33:43;-0.40;99.90
60033;DHT22;45905;50.570;10.428;2022-12-10T16:36:11;-0.40;99.90
60033;DHT22;45905;50.570;10.428;2022-12-10T16:38:39;-0.40;99.90
60033;DHT22;45905;50.570;10.428;2022-12-10T16:41:14;-0.40;99.90
60033;DHT22;45905;50.570;10.428;2022-12-10T16:43:43;-0.40;99.90
60033;DHT22;45905;50.570;10.428;2022-12-10T16:46:13;-0.50;99.90
60033;DHT22;45905;50.570;10.428;2022-12-10T16:48:41;-0.20;99.90
60033;DHT22;45905;50.570;10.428;2022-12-10T16:51:20;-0.50;99.90
60033;DHT22;45905;50.570;10.428;2022-12-10T16:53:50;-0.50;99.90
60033;DHT22;45905;50.570;10.428;2022-12-10T16:56:17;-0.50;99.90
60033;DHT22;45905;50.570;10.428;2022-12-10T16:58:45;-0.50;99.90
60033;DHT22;45905;50.570;10.428;2022-12-10T17:01:26;-0.60;99.90
60033;DHT22;45905;50.570;10.428;2022-12-10T17:03:55;-0.60;99.90
60033;DHT22;45905;50.570;10.428;2022-12-10T17:06:23;-0.40;99.90
60033;DHT22;45905;50.570;10.428;2022-12-10T17:08:51;-0.60;99.90
60033;DHT22;45905;50.570;10.428;2022-12-10T17:11:25;-0.60;99.90
60033;DHT22;45905;50.570;10.428;2022-12-10T17:14:29;-0.60;99.90
60033;DHT22;45905;50.570;10.428;2022-12-10T17:17:00;-0.60;99.90
60033;DHT22;45905;50.570;10.428;2022-12-10T17:19:31;-0.60;99.90
60033;DHT22;45905;50.570;10.428;2022-12-10T17:22:00;-0.60;99.90
60033;DHT22;45905;50.570;10.428;2022-12-10T17:24:28;-0.60;99.90
60033;DHT22;45905;50.570;10.428;2022-12-10T17:27:01;-0.60;99.90
60033;DHT22;45905;50.570;10.428;2022-12-10T17:29:41;-0.60;99.90
60033;DHT22;45905;50.570;10.428;2022-12-10T17:32:16;-0.60;99.90
60033;DHT22;45905;50.570;10.428;2022-12-10T17:34:43;-0.60;99.90
60033;DHT22;45905;50.570;10.428;2022-12-10T17:37:12;-0.50;99.90
60033;DHT22;45905;50.570;10.428;2022-12-10T17:39:42;-0.70;99.90
60033;DHT22;45905;50.570;10.428;2022-12-10T17:42:09;-0.60;99.90
60033;DHT22;45905;50.570;10.428;2022-12-10T17:44:37;-0.50;99.90
60033;DHT22;45905;50.570;10.428;2022-12-10T17:47:33;-0.50;99.90
60033;DHT22;45905;50.570;10.428;2022-12-10T17:50:02;-0.50;99.90
60033;DHT22;45905;50.570;10.428;2022-12-10T17:52:32;-0.50;99.90
60033;DHT22;45905;50.570;10.428;2022-12-10T17:54:59;-0.50;99.90
60033;DHT22;45905;50.570;10.428;2022-12-10T17:57:27;-0.60;99.90
60033;DHT22;45905;50.570;10.428;2022-12-10T17:59:54;-0.60;99.90
60033;DHT22;45905;50.570;10.428;2022-12-10T18:02:22;-0.60;99.90
60033;DHT22;45905;50.570;10.428;2022-12-10T18:04:49;-0.50;99.90
60033;DHT22;45905;50.570;10.428;2022-12-10T18:07:17;-0.60;99.90
60033;DHT22;45905;50.570;10.428;2022-12-10T18:09:45;-0.70;99.90
60033;DHT22;45905;50.570;10.428;2022-12-10T18:12:12;-0.70;99.90
60033;DHT22;45905;50.570;10.428;2022-12-10T18:14:40;-0.70;99.90
60033;DHT22;45905;50.570;10.428;2022-12-10T18:17:13;-0.70;99.90
60033;DHT22;45905;50.570;10.428;2022-12-10T18:19:41;-0.70;99.90
60033;DHT22;45905;50.570;10.428;2022-12-10T18:22:13;-0.70;99.90
60033;DHT22;45905;50.570;10.428;2022-12-10T18:24:40;-0.70;99.90
60033;DHT22;45905;50.570;10.428;2022-12-10T18:27:10;-0.70;99.90
60033;DHT22;45905;50.570;10.428;2022-12-10T18:29:38;-0.70;99.90
60033;DHT22;45905;50.570;10.428;2022-12-10T18:32:05;-0.70;99.90
60033;DHT22;45905;50.570;10.428;2022-12-10T18:34:33;-0.60;99.90